sensor_id;sensor_type;location;lat;lon;timestamp;pressure;altitude;pressure_sealevel;temperature;humidity
60417;BME280;46263;44.726;10.396;2022-09-09T00:04:28;100138.53;;;25.14;63.69
60417;BME280;46263;44.726;10.396;2022-09-09T00:09:50;100139.28;;;25.14;63.55
60417;BME280;46263;44.726;10.396;2022-09-09T00:12:41;100145.63;;;25.13;63.56
60417;BME280;46263;44.726;10.396;2022-09-09T00:15:14;100132.06;;;25.13;63.62
60417;BME280;46263;44.726;10.396;2022-09-09T00:17:48;100137.78;;;25.13;63.63
60417;BME280;46263;44.726;10.396;2022-09-09T00:28:30;100146.34;;;25.13;63.49
60417;BME280;46263;44.726;10.396;2022-09-09T00:31:07;100139.16;;;25.12;63.55
60417;BME280;46263;44.726;10.396;2022-09-09T00:33:35;100143.41;;;25.11;63.55
60417;BME280;46263;44.726;10.396;2022-09-09T00:36:01;100143.41;;;25.11;63.12
60417;BME280;46263;44.726;10.396;2022-09-09T00:38:36;100144.88;;;25.12;63.29
60417;BME280;46263;44.726;10.396;2022-09-09T00:44:00;100131.97;;;25.11;63.23
60417;BME280;46263;44.726;10.396;2022-09-09T00:51:59;100125.34;;;25.09;62.79
60417;BME280;46263;44.726;10.396;2022-09-09T00:55:06;100133.19;;;25.08;62.70
60417;BME280;46263;44.726;10.396;2022-09-09T00:57:34;100131.69;;;25.07;62.60
60417;BME280;46263;44.726;10.396;2022-09-09T01:00:35;100140.28;;;25.07;62.45
60417;BME280;46263;44.726;10.396;2022-09-09T01:03:29;100132.44;;;25.08;62.43
60417;BME280;46263;44.726;10.396;2022-09-09T01:11:07;100132.34;;;25.06;61.87
60417;BME280;46263;44.726;10.396;2022-09-09T01:13:35;100133.06;;;25.06;62.09
60417;BME280;46263;44.726;10.396;2022-09-09T01:16:08;100138.91;;;25.08;61.93
60417;BME280;46263;44.726;10.396;2022-09-09T01:18:44;100144.50;;;25.06;61.82
60417;BME280;46263;44.726;10.396;2022-09-09T01:21:26;100143.03;;;25.05;61.82
60417;BME280;46263;44.726;10.396;2022-09-09T01:27:02;100120.78;;;25.04;61.59
60417;BME280;46263;44.726;10.396;2022-09-09T01:29:29;100117.19;;;25.03;61.29
60417;BME280;46263;44.726;10.396;2022-09-09T01:34:21;100111.47;;;25.03;61.37
60417;BME280;46263;44.726;10.396;2022-09-09T01:39:19;100112.19;;;25.04;61.02
60417;BME280;46263;44.726;10.396;2022-09-09T01:41:45;100109.31;;;25.04;61.16
60417;BME280;46263;44.726;10.396;2022-09-09T01:44:11;100103.47;;;25.02;61.27
60417;BME280;46263;44.726;10.396;2022-09-09T01:46:36;100101.38;;;25.02;60.96
60417;BME280;46263;44.726;10.396;2022-09-09T01:49:03;100104.25;;;25.02;60.99
60417;BME280;46263;44.726;10.396;2022-09-09T01:51:30;100105.63;;;25.01;61.08
60417;BME280;46263;44.726;10.396;2022-09-09T01:53:56;100102.00;;;25.01;60.91
60417;BME280;46263;44.726;10.396;2022-09-09T01:56:31;100100.50;;;25.00;60.72
60417;BME280;46263;44.726;10.396;2022-09-09T01:59:05;100098.41;;;25.00;60.71
60417;BME280;46263;44.726;10.396;2022-09-09T02:04:43;100091.19;;;24.99;60.59
60417;BME280;46263;44.726;10.396;2022-09-09T02:13:21;100108.34;;;24.99;60.23
60417;BME280;46263;44.726;10.396;2022-09-09T02:16:05;100104.13;;;25.00;60.21
60417;BME280;46263;44.726;10.396;2022-09-09T02:21:07;100111.09;;;24.97;60.08
60417;BME280;46263;44.726;10.396;2022-09-09T02:23:36;100112.59;;;24.98;60.13
60417;BME280;46263;44.726;10.396;2022-09-09T02:26:03;100111.09;;;24.97;59.88
60417;BME280;46263;44.726;10.396;2022-09-09T02:28:32;100106.88;;;24.98;59.94
60417;BME280;46263;44.726;10.396;2022-09-09T02:30:58;100105.38;;;24.97;59.84
60417;BME280;46263;44.726;10.396;2022-09-09T02:33:30;100106.75;;;24.96;59.86
60417;BME280;46263;44.726;10.396;2022-09-09T02:36:01;100110.38;;;24.97;59.93
60417;BME280;46263;44.726;10.396;2022-09-09T02:38:33;100107.38;;;24.95;59.85
60417;BME280;46263;44.726;10.396;2022-09-09T02:41:01;100102.19;;;24.92;59.64
60417;BME280;46263;44.726;10.396;2022-09-09T02:43:36;100106.53;;;24.93;59.71
60417;BME280;46263;44.726;10.396;2022-09-09T02:48:55;100109.50;;;24.95;59.32
60417;BME280;46263;44.726;10.396;2022-09-09T02:54:10;100102.31;;;24.94;59.34
60417;BME280;46263;44.726;10.396;2022-09-09T02:56:46;100101.53;;;24.93;59.07
60417;BME280;46263;44.726;10.396;2022-09-09T02:59:15;100111.63;;;24.94;59.15
60417;BME280;46263;44.726;10.396;2022-09-09T03:01:41;100103.66;;;24.93;59.12
60417;BME280;46263;44.726;10.396;2022-09-09T03:04:07;100106.53;;;24.93;59.03
60417;BME280;46263;44.726;10.396;2022-09-09T03:06:32;100103.66;;;24.93;59.09
60417;BME280;46263;44.726;10.396;2022-09-09T03:08:58;100113.75;;;24.94;58.80
60417;BME280;46263;44.726;10.396;2022-09-09T03:11:26;100109.38;;;24.93;58.64
60417;BME280;46263;44.726;10.396;2022-09-09T03:13:53;100112.97;;;24.93;58.60
60417;BME280;46263;44.726;10.396;2022-09-09T03:16:20;100097.19;;;24.92;58.89
60417;BME280;46263;44.726;10.396;2022-09-09T03:18:46;100107.91;;;24.92;58.71
60417;BME280;46263;44.726;10.396;2022-09-09T03:21:12;100101.44;;;24.91;58.77
60417;BME280;46263;44.726;10.396;2022-09-09T03:23:37;100104.31;;;24.91;58.59
60417;BME280;46263;44.726;10.396;2022-09-09T03:26:03;100098.47;;;24.89;58.70
60417;BME280;46263;44.726;10.396;2022-09-09T03:28:28;100090.63;;;24.90;58.57
60417;BME280;46263;44.726;10.396;2022-09-09T03:31:05;100098.47;;;24.89;58.54
60417;BME280;46263;44.726;10.396;2022-09-09T03:33:31;100093.47;;;24.90;58.36
60417;BME280;46263;44.726;10.396;2022-09-09T03:35:57;100099.19;;;24.90;58.54
60417;BME280;46263;44.726;10.396;2022-09-09T03:38:24;100094.84;;;24.89;58.26
60417;BME280;46263;44.726;10.396;2022-09-09T03:40:51;100098.47;;;24.89;58.19
60417;BME280;46263;44.726;10.396;2022-09-09T03:43:21;100098.47;;;24.89;58.25
60417;BME280;46263;44.726;10.396;2022-09-09T03:45:47;100103.44;;;24.89;58.46
60417;BME280;46263;44.726;10.396;2022-09-09T03:48:13;100093.47;;;24.90;58.50
60417;BME280;46263;44.726;10.396;2022-09-09T03:50:39;100097.72;;;24.89;58.24
60417;BME280;46263;44.726;10.396;2022-09-09T03:53:04;100096.97;;;24.88;58.16
60417;BME280;46263;44.726;10.396;2022-09-09T03:55:31;100090.53;;;24.88;58.41
60417;BME280;46263;44.726;10.396;2022-09-09T03:57:57;100082.56;;;24.86;58.01
60417;BME280;46263;44.726;10.396;2022-09-09T04:00:23;100080.47;;;24.87;58.04
60417;BME280;46263;44.726;10.396;2022-09-09T04:02:49;100089.03;;;24.87;58.07
60417;BME280;46263;44.726;10.396;2022-09-09T04:05:15;100084.81;;;24.88;57.89
60417;BME280;46263;44.726;10.396;2022-09-09T04:07:40;100086.06;;;24.85;57.83
60417;BME280;46263;44.726;10.396;2022-09-09T04:10:06;100075.25;;;24.83;58.05
60417;BME280;46263;44.726;10.396;2022-09-09T04:12:33;100075.25;;;24.83;57.76
60417;BME280;46263;44.726;10.396;2022-09-09T04:14:59;100084.56;;;24.84;57.95
60417;BME280;46263;44.726;10.396;2022-09-09T04:17:27;100073.13;;;24.84;58.08
60417;BME280;46263;44.726;10.396;2022-09-09T04:19:52;100077.34;;;24.83;57.97
60417;BME280;46263;44.726;10.396;2022-09-09T04:22:18;100073.13;;;24.84;57.75
60417;BME280;46263;44.726;10.396;2022-09-09T04:24:43;100076.63;;;24.82;57.63
60417;BME280;46263;44.726;10.396;2022-09-09T04:27:09;100065.91;;;24.83;57.89
60417;BME280;46263;44.726;10.396;2022-09-09T04:29:34;100071.50;;;24.81;57.67
60417;BME280;46263;44.726;10.396;2022-09-09T04:32:00;100069.41;;;24.81;57.74
60417;BME280;46263;44.726;10.396;2022-09-09T04:34:25;100071.50;;;24.81;57.49
60417;BME280;46263;44.726;10.396;2022-09-09T04:36:51;100058.59;;;24.80;57.37
60417;BME280;46263;44.726;10.396;2022-09-09T04:39:17;100054.78;;;24.75;57.63
60417;BME280;46263;44.726;10.396;2022-09-09T04:41:42;100052.88;;;24.80;57.56
60417;BME280;46263;44.726;10.396;2022-09-09T04:44:08;100054.34;;;24.81;57.61
60417;BME280;46263;44.726;10.396;2022-09-09T04:46:35;100048.63;;;24.81;57.53
60417;BME280;46263;44.726;10.396;2022-09-09T04:49:00;100050.00;;;24.80;57.44
60417;BME280;46263;44.726;10.396;2022-09-09T04:51:26;100051.50;;;24.81;57.17
60417;BME280;46263;44.726;10.396;2022-09-09T04:53:51;100057.97;;;24.81;57.18
60417;BME280;46263;44.726;10.396;2022-09-09T04:56:19;100053.63;;;24.80;57.42
60417;BME280;46263;44.726;10.396;2022-09-09T04:58:45;100062.84;;;24.79;57.16
60417;BME280;46263;44.726;10.396;2022-09-09T05:03:39;100065.78;;;24.81;57.18
60417;BME280;46263;44.726;10.396;2022-09-09T05:06:08;100072.88;;;24.80;57.03
60417;BME280;46263;44.726;10.396;2022-09-09T05:08:39;100074.38;;;24.81;57.61
60417;BME280;46263;44.726;10.396;2022-09-09T05:11:18;100075.75;;;24.80;56.85
60417;BME280;46263;44.726;10.396;2022-09-09T05:13:44;100066.31;;;24.77;57.04
60417;BME280;46263;44.726;10.396;2022-09-09T05:16:10;100072.66;;;24.76;56.55
60417;BME280;46263;44.726;10.396;2022-09-09T05:18:37;100082.63;;;24.75;57.12
60417;BME280;46263;44.726;10.396;2022-09-09T05:21:03;100081.00;;;24.72;56.85
60417;BME280;46263;44.726;10.396;2022-09-09T05:23:28;100081.13;;;24.74;56.83
60417;BME280;46263;44.726;10.396;2022-09-09T05:25:57;100086.97;;;24.76;57.32
60417;BME280;46263;44.726;10.396;2022-09-09T05:28:27;100087.81;;;24.78;56.85
60417;BME280;46263;44.726;10.396;2022-09-09T05:30:57;100086.47;;;24.79;57.01
60417;BME280;46263;44.726;10.396;2022-09-09T05:33:24;100102.13;;;24.78;56.73
60417;BME280;46263;44.726;10.396;2022-09-09T05:36:23;100104.25;;;24.78;56.53
60417;BME280;46263;44.726;10.396;2022-09-09T05:38:49;100104.97;;;24.78;56.45
60417;BME280;46263;44.726;10.396;2022-09-09T05:41:15;100096.41;;;24.78;56.51
60417;BME280;46263;44.726;10.396;2022-09-09T05:43:41;100094.31;;;24.79;56.51
60417;BME280;46263;44.726;10.396;2022-09-09T05:46:15;100102.63;;;24.75;56.21
60417;BME280;46263;44.726;10.396;2022-09-09T05:48:42;100102.63;;;24.75;56.79
60417;BME280;46263;44.726;10.396;2022-09-09T05:51:10;100102.00;;;24.76;56.90
60417;BME280;46263;44.726;10.396;2022-09-09T05:53:38;100105.50;;;24.75;56.31
60417;BME280;46263;44.726;10.396;2022-09-09T05:56:05;100104.75;;;24.74;56.55
60417;BME280;46263;44.726;10.396;2022-09-09T05:58:32;100112.06;;;24.77;56.70
60417;BME280;46263;44.726;10.396;2022-09-09T06:01:28;100110.69;;;24.78;56.81
60417;BME280;46263;44.726;10.396;2022-09-09T06:03:52;100115.69;;;24.78;56.68
60417;BME280;46263;44.726;10.396;2022-09-09T06:06:24;100118.56;;;24.78;56.39
60417;BME280;46263;44.726;10.396;2022-09-09T06:08:52;100125.75;;;24.79;56.94
60417;BME280;46263;44.726;10.396;2022-09-09T06:11:23;100122.91;;;24.79;56.87
60417;BME280;46263;44.726;10.396;2022-09-09T06:13:49;100121.50;;;24.80;57.14
60417;BME280;46263;44.726;10.396;2022-09-09T06:16:22;100131.47;;;24.79;57.00
60417;BME280;46263;44.726;10.396;2022-09-09T06:18:51;100128.63;;;24.79;57.00
60417;BME280;46263;44.726;10.396;2022-09-09T06:21:18;100131.47;;;24.79;57.41
60417;BME280;46263;44.726;10.396;2022-09-09T06:23:44;100124.38;;;24.80;57.08
60417;BME280;46263;44.726;10.396;2022-09-09T06:26:12;100130.09;;;24.80;57.21
60417;BME280;46263;44.726;10.396;2022-09-09T06:28:38;100135.72;;;24.78;57.14
60417;BME280;46263;44.726;10.396;2022-09-09T06:31:06;100131.34;;;24.77;57.36
60417;BME280;46263;44.726;10.396;2022-09-09T06:33:37;100132.84;;;24.78;57.33
60417;BME280;46263;44.726;10.396;2022-09-09T06:36:05;100132.84;;;24.78;57.54
60417;BME280;46263;44.726;10.396;2022-09-09T06:38:31;100130.59;;;24.76;57.69
60417;BME280;46263;44.726;10.396;2022-09-09T06:40:58;100127.13;;;24.78;57.67
60417;BME280;46263;44.726;10.396;2022-09-09T06:43:25;100121.41;;;24.78;57.85
60417;BME280;46263;44.726;10.396;2022-09-09T06:45:55;100117.19;;;24.79;57.67
60417;BME280;46263;44.726;10.396;2022-09-09T06:48:21;100125.75;;;24.79;57.69
60417;BME280;46263;44.726;10.396;2022-09-09T06:50:46;100121.41;;;24.78;57.74
60417;BME280;46263;44.726;10.396;2022-09-09T06:53:12;100127.13;;;24.78;57.76
60417;BME280;46263;44.726;10.396;2022-09-09T06:55:37;100117.69;;;24.75;57.76
60417;BME280;46263;44.726;10.396;2022-09-09T06:58:08;100124.88;;;24.76;57.83
60417;BME280;46263;44.726;10.396;2022-09-09T07:00:33;100121.41;;;24.78;57.72
60417;BME280;46263;44.726;10.396;2022-09-09T07:02:59;100118.56;;;24.78;57.96
60417;BME280;46263;44.726;10.396;2022-09-09T07:05:24;100119.78;;;24.75;57.76
60417;BME280;46263;44.726;10.396;2022-09-09T07:07:51;100124.03;;;24.74;58.12
60417;BME280;46263;44.726;10.396;2022-09-09T07:10:17;100122.66;;;24.75;57.88
60417;BME280;46263;44.726;10.396;2022-09-09T07:12:42;100116.19;;;24.74;58.08
60417;BME280;46263;44.726;10.396;2022-09-09T07:15:08;100122.03;;;24.76;58.28
60417;BME280;46263;44.726;10.396;2022-09-09T07:17:34;100115.56;;;24.76;58.10
60417;BME280;46263;44.726;10.396;2022-09-09T07:20:01;100115.56;;;24.76;58.45
60417;BME280;46263;44.726;10.396;2022-09-09T07:22:28;100112.72;;;24.76;58.44
60417;BME280;46263;44.726;10.396;2022-09-09T07:24:53;100127.66;;;24.74;58.56
60417;BME280;46263;44.726;10.396;2022-09-09T07:27:19;100116.41;;;24.78;58.61
60417;BME280;46263;44.726;10.396;2022-09-09T07:29:44;100120.13;;;24.81;58.69
60417;BME280;46263;44.726;10.396;2022-09-09T07:32:10;100118.16;;;24.83;58.76
60417;BME280;46263;44.726;10.396;2022-09-09T07:34:36;100111.78;;;24.85;58.73
60417;BME280;46263;44.726;10.396;2022-09-09T07:37:02;100117.63;;;24.87;58.99
60417;BME280;46263;44.726;10.396;2022-09-09T07:39:27;100126.22;;;24.87;58.88
60417;BME280;46263;44.726;10.396;2022-09-09T07:41:52;100127.81;;;24.90;59.32
60417;BME280;46263;44.726;10.396;2022-09-09T07:44:21;100121.34;;;24.89;59.49
60417;BME280;46263;44.726;10.396;2022-09-09T07:46:48;100119.88;;;24.88;59.60
60417;BME280;46263;44.726;10.396;2022-09-09T07:49:14;100123.56;;;24.91;59.53
60417;BME280;46263;44.726;10.396;2022-09-09T07:51:42;100122.94;;;24.92;59.75
60417;BME280;46263;44.726;10.396;2022-09-09T07:54:10;100110.88;;;24.94;59.78
60417;BME280;46263;44.726;10.396;2022-09-09T07:56:37;100105.28;;;24.96;59.84
60417;BME280;46263;44.726;10.396;2022-09-09T07:59:03;100110.25;;;24.95;60.22
60417;BME280;46263;44.726;10.396;2022-09-09T08:01:39;100121.81;;;24.97;60.25
60417;BME280;46263;44.726;10.396;2022-09-09T08:04:11;100123.31;;;24.98;60.21
60417;BME280;46263;44.726;10.396;2022-09-09T08:06:43;100133.25;;;24.97;60.62
60417;BME280;46263;44.726;10.396;2022-09-09T08:09:09;100126.16;;;24.98;61.06
60417;BME280;46263;44.726;10.396;2022-09-09T08:11:35;100126.78;;;24.96;60.69
60417;BME280;46263;44.726;10.396;2022-09-09T08:14:02;100122.53;;;24.97;60.58
60417;BME280;46263;44.726;10.396;2022-09-09T08:16:32;100126.88;;;24.98;60.58
60417;BME280;46263;44.726;10.396;2022-09-09T08:18:59;100134.22;;;25.01;61.17
60417;BME280;46263;44.726;10.396;2022-09-09T08:21:29;100128.63;;;25.03;61.13
60417;BME280;46263;44.726;10.396;2022-09-09T08:23:58;100132.84;;;25.02;61.01
60417;BME280;46263;44.726;10.396;2022-09-09T08:26:27;100132.94;;;25.04;61.52
60417;BME280;46263;44.726;10.396;2022-09-09T08:28:55;100147.88;;;25.03;61.41
60417;BME280;46263;44.726;10.396;2022-09-09T08:33:54;100143.66;;;25.04;61.55
60417;BME280;46263;44.726;10.396;2022-09-09T08:36:21;100147.38;;;25.06;61.76
60417;BME280;46263;44.726;10.396;2022-09-09T08:38:49;100151.59;;;25.05;61.80
60417;BME280;46263;44.726;10.396;2022-09-09T08:55:27;100159.66;;;25.09;62.31
60417;BME280;46263;44.726;10.396;2022-09-09T08:57:56;100153.22;;;25.08;62.16
60417;BME280;46263;44.726;10.396;2022-09-09T09:00:22;100158.31;;;25.10;62.06
60417;BME280;46263;44.726;10.396;2022-09-09T09:03:05;100156.81;;;25.09;62.47
60417;BME280;46263;44.726;10.396;2022-09-09T09:05:55;100159.09;;;25.10;62.26
60417;BME280;46263;44.726;10.396;2022-09-09T09:08:31;100155.59;;;25.12;62.95
60417;BME280;46263;44.726;10.396;2022-09-09T09:11:03;100155.59;;;25.12;62.50
60417;BME280;46263;44.726;10.396;2022-09-09T09:16:32;100148.50;;;25.13;62.53
60417;BME280;46263;44.726;10.396;2022-09-09T09:18:59;100147.84;;;25.14;63.05
60417;BME280;46263;44.726;10.396;2022-09-09T09:21:43;100147.13;;;25.14;62.96
60417;BME280;46263;44.726;10.396;2022-09-09T09:24:39;100150.72;;;25.14;62.97
60417;BME280;46263;44.726;10.396;2022-09-09T09:27:13;100154.34;;;25.15;62.92
60417;BME280;46263;44.726;10.396;2022-09-09T09:29:39;100152.84;;;25.14;63.01
60417;BME280;46263;44.726;10.396;2022-09-09T09:32:07;100155.06;;;25.15;63.32
60417;BME280;46263;44.726;10.396;2022-09-09T09:34:37;100142.88;;;25.15;63.14
60417;BME280;46263;44.726;10.396;2022-09-09T09:37:13;100150.72;;;25.14;63.05
60417;BME280;46263;44.726;10.396;2022-09-09T09:39:43;100145.09;;;25.16;62.98
60417;BME280;46263;44.726;10.396;2022-09-09T09:42:13;100150.84;;;25.16;63.13
60417;BME280;46263;44.726;10.396;2022-09-09T09:44:39;100152.31;;;25.17;62.95
60417;BME280;46263;44.726;10.396;2022-09-09T09:47:12;100150.97;;;25.18;63.23
60417;BME280;46263;44.726;10.396;2022-09-09T09:49:38;100155.19;;;25.17;63.28
60417;BME280;46263;44.726;10.396;2022-09-09T09:52:06;100159.41;;;25.16;63.24
60417;BME280;46263;44.726;10.396;2022-09-09T09:54:36;100155.19;;;25.17;63.27
60417;BME280;46263;44.726;10.396;2022-09-09T09:57:14;100163.00;;;25.17;63.23
60417;BME280;46263;44.726;10.396;2022-09-09T09:59:41;100157.94;;;25.15;63.22
60417;BME280;46263;44.726;10.396;2022-09-09T10:02:16;100157.94;;;25.15;63.30
60417;BME280;46263;44.726;10.396;2022-09-09T10:04:42;100160.28;;;25.19;63.28
60417;BME280;46263;44.726;10.396;2022-09-09T10:07:20;100150.97;;;25.18;63.40
60417;BME280;46263;44.726;10.396;2022-09-09T10:09:54;100150.97;;;25.18;63.39
60417;BME280;46263;44.726;10.396;2022-09-09T10:18:17;100147.34;;;25.18;63.34
60417;BME280;46263;44.726;10.396;2022-09-09T10:21:41;100147.34;;;25.18;63.34
60417;BME280;46263;44.726;10.396;2022-09-09T10:26:39;100146.59;;;25.17;63.55
60417;BME280;46263;44.726;10.396;2022-09-09T10:31:53;100148.09;;;25.18;63.90
60417;BME280;46263;44.726;10.396;2022-09-09T10:36:49;100146.59;;;25.17;63.97
60417;BME280;46263;44.726;10.396;2022-09-09T10:44:38;100145.09;;;25.16;63.87
60417;BME280;46263;44.726;10.396;2022-09-09T10:53:02;100152.97;;;25.16;63.87
60417;BME280;46263;44.726;10.396;2022-09-09T10:55:30;100144.38;;;25.16;63.77
60417;BME280;46263;44.726;10.396;2022-09-09T10:58:00;100141.41;;;25.14;64.12
60417;BME280;46263;44.726;10.396;2022-09-09T11:00:39;100142.25;;;25.16;63.76
60417;BME280;46263;44.726;10.396;2022-09-09T11:03:05;100143.63;;;25.15;64.02
60417;BME280;46263;44.726;10.396;2022-09-09T11:05:43;100143.63;;;25.15;63.96
60417;BME280;46263;44.726;10.396;2022-09-09T11:21:47;100139.38;;;25.16;64.09
60417;BME280;46263;44.726;10.396;2022-09-09T11:26:47;100136.53;;;25.16;63.99
60417;BME280;46263;44.726;10.396;2022-09-09T11:32:39;100132.19;;;25.15;64.26
60417;BME280;46263;44.726;10.396;2022-09-09T11:40:27;100132.06;;;25.13;63.99
60417;BME280;46263;44.726;10.396;2022-09-09T11:43:14;100130.56;;;25.12;64.17
60417;BME280;46263;44.726;10.396;2022-09-09T11:45:42;100134.91;;;25.13;64.24
60417;BME280;46263;44.726;10.396;2022-09-09T11:48:34;100122.75;;;25.13;64.31
60417;BME280;46263;44.726;10.396;2022-09-09T11:51:13;100124.84;;;25.12;64.38
60417;BME280;46263;44.726;10.396;2022-09-09T11:59:29;100120.53;;;25.11;64.28
60417;BME280;46263;44.726;10.396;2022-09-09T12:06:54;100109.06;;;25.11;63.90
60417;BME280;46263;44.726;10.396;2022-09-09T12:15:17;100101.84;;;25.10;63.96
60417;BME280;46263;44.726;10.396;2022-09-09T12:17:51;100099.09;;;25.12;63.78
60417;BME280;46263;44.726;10.396;2022-09-09T12:25:56;100096.13;;;25.10;63.71
60417;BME280;46263;44.726;10.396;2022-09-09T12:28:48;100078.22;;;25.10;63.75
60417;BME280;46263;44.726;10.396;2022-09-09T12:31:27;100087.56;;;25.10;63.74
60417;BME280;46263;44.726;10.396;2022-09-09T12:34:09;100084.53;;;25.08;63.74
60417;BME280;46263;44.726;10.396;2022-09-09T12:36:35;100083.94;;;25.10;63.76
60417;BME280;46263;44.726;10.396;2022-09-09T12:39:14;100089.66;;;25.10;63.73
60417;BME280;46263;44.726;10.396;2022-09-09T12:41:50;100075.34;;;25.10;63.68
60417;BME280;46263;44.726;10.396;2022-09-09T12:44:23;100069.00;;;25.11;63.49
60417;BME280;46263;44.726;10.396;2022-09-09T12:46:49;100066.75;;;25.10;63.49
60417;BME280;46263;44.726;10.396;2022-09-09T12:49:33;100082.56;;;25.11;63.62
60417;BME280;46263;44.726;10.396;2022-09-09T12:52:06;100089.66;;;25.10;63.60
60417;BME280;46263;44.726;10.396;2022-09-09T12:54:35;100087.41;;;25.08;63.55
60417;BME280;46263;44.726;10.396;2022-09-09T12:57:01;100088.13;;;25.09;63.58
60417;BME280;46263;44.726;10.396;2022-09-09T12:59:39;100073.09;;;25.08;63.50
60417;BME280;46263;44.726;10.396;2022-09-09T13:02:18;100083.94;;;25.10;63.50
60417;BME280;46263;44.726;10.396;2022-09-09T13:04:44;100072.34;;;25.08;63.47
60417;BME280;46263;44.726;10.396;2022-09-09T13:07:13;100071.50;;;25.05;63.73
60417;BME280;46263;44.726;10.396;2022-09-09T13:09:42;100079.06;;;25.12;63.57
60417;BME280;46263;44.726;10.396;2022-09-09T13:12:19;100089.13;;;25.13;63.42
60417;BME280;46263;44.726;10.396;2022-09-09T13:14:49;100087.75;;;25.14;63.36
60417;BME280;46263;44.726;10.396;2022-09-09T13:17:21;100079.94;;;25.15;63.30
60417;BME280;46263;44.726;10.396;2022-09-09T13:19:48;100079.41;;;25.18;63.32
60417;BME280;46263;44.726;10.396;2022-09-09T13:25:52;100080.91;;;25.19;63.38
60417;BME280;46263;44.726;10.396;2022-09-09T13:30:34;100075.28;;;25.21;63.23
60417;BME280;46263;44.726;10.396;2022-09-09T13:35:51;100055.34;;;25.23;63.33
60417;BME280;46263;44.726;10.396;2022-09-09T13:38:18;100057.47;;;25.23;63.38
60417;BME280;46263;44.726;10.396;2022-09-09T13:41:04;100057.47;;;25.23;62.87
60417;BME280;46263;44.726;10.396;2022-09-09T13:43:34;100059.69;;;25.24;63.18
60417;BME280;46263;44.726;10.396;2022-09-09T13:46:05;100051.13;;;25.24;63.46
60417;BME280;46263;44.726;10.396;2022-09-09T13:48:54;100042.53;;;25.24;63.17
60417;BME280;46263;44.726;10.396;2022-09-09T13:54:00;100029.72;;;25.25;63.24
60417;BME280;46263;44.726;10.396;2022-09-09T13:56:26;100039.16;;;25.28;63.55
60417;BME280;46263;44.726;10.396;2022-09-09T13:58:52;100032.69;;;25.27;63.48
60417;BME280;46263;44.726;10.396;2022-09-09T14:01:17;100029.06;;;25.27;63.37
60417;BME280;46263;44.726;10.396;2022-09-09T14:03:43;100015.50;;;25.27;63.59
60417;BME280;46263;44.726;10.396;2022-09-09T14:06:10;100019.84;;;25.28;63.43
60417;BME280;46263;44.726;10.396;2022-09-09T14:08:36;100030.03;;;25.31;63.27
60417;BME280;46263;44.726;10.396;2022-09-09T14:11:05;100028.66;;;25.32;63.28
60417;BME280;46263;44.726;10.396;2022-09-09T14:13:32;100028.53;;;25.30;63.47
60417;BME280;46263;44.726;10.396;2022-09-09T14:15:57;100029.91;;;25.29;63.11
60417;BME280;46263;44.726;10.396;2022-09-09T14:18:23;100034.91;;;25.29;63.45
60417;BME280;46263;44.726;10.396;2022-09-09T14:20:50;100037.78;;;25.29;63.30
60417;BME280;46263;44.726;10.396;2022-09-09T14:23:16;100035.56;;;25.27;63.19
60417;BME280;46263;44.726;10.396;2022-09-09T14:25:43;100039.03;;;25.26;63.43
60417;BME280;46263;44.726;10.396;2022-09-09T14:28:10;100045.50;;;25.26;63.27
60417;BME280;46263;44.726;10.396;2022-09-09T14:30:37;100031.94;;;25.27;63.09
60417;BME280;46263;44.726;10.396;2022-09-09T14:33:03;100036.94;;;25.26;63.36
60417;BME280;46263;44.726;10.396;2022-09-09T14:35:29;100044.13;;;25.27;63.23
60417;BME280;46263;44.726;10.396;2022-09-09T14:37:54;100040.50;;;25.27;63.18
60417;BME280;46263;44.726;10.396;2022-09-09T14:40:21;100043.38;;;25.27;62.99
60417;BME280;46263;44.726;10.396;2022-09-09T14:42:46;100042.00;;;25.28;63.11
60417;BME280;46263;44.726;10.396;2022-09-09T14:45:12;100044.22;;;25.29;62.93
60417;BME280;46263;44.726;10.396;2022-09-09T14:47:37;100050.59;;;25.28;63.13
60417;BME280;46263;44.726;10.396;2022-09-09T14:50:04;100049.22;;;25.29;63.17
60417;BME280;46263;44.726;10.396;2022-09-09T14:52:30;100048.47;;;25.28;63.03
60417;BME280;46263;44.726;10.396;2022-09-09T14:54:56;100049.41;;;25.33;62.79
60417;BME280;46263;44.726;10.396;2022-09-09T14:57:22;100042.97;;;25.32;62.97
60417;BME280;46263;44.726;10.396;2022-09-09T14:59:47;100037.97;;;25.33;62.82
60417;BME280;46263;44.726;10.396;2022-09-09T15:02:16;100030.16;;;25.33;62.79
60417;BME280;46263;44.726;10.396;2022-09-09T15:04:41;100020.06;;;25.32;63.06
60417;BME280;46263;44.726;10.396;2022-09-09T15:07:07;100023.56;;;25.31;62.98
60417;BME280;46263;44.726;10.396;2022-09-09T15:09:33;100036.50;;;25.32;63.17
60417;BME280;46263;44.726;10.396;2022-09-09T15:11:58;100035.75;;;25.31;63.25
60417;BME280;46263;44.726;10.396;2022-09-09T15:14:24;100041.47;;;25.31;63.12
60417;BME280;46263;44.726;10.396;2022-09-09T15:16:51;100043.59;;;25.31;63.15
60417;BME280;46263;44.726;10.396;2022-09-09T15:19:17;100049.34;;;25.31;63.30
60417;BME280;46263;44.726;10.396;2022-09-09T15:21:42;100047.09;;;25.29;63.36
60417;BME280;46263;44.726;10.396;2022-09-09T15:24:07;100043.59;;;25.31;63.07
60417;BME280;46263;44.726;10.396;2022-09-09T15:26:33;100045.72;;;25.30;63.47
60417;BME280;46263;44.726;10.396;2022-09-09T15:28:59;100045.72;;;25.30;63.45
60417;BME280;46263;44.726;10.396;2022-09-09T15:31:27;100054.31;;;25.30;63.38